Time;durP1;ratioP1;P1;durP2;ratioP2;P2;SDS_P1;SDS_P2;PMS_P1;PMS_P2;Temp;Humidity;BMP_temperature;BMP_pressure;BME280_temperature;BME280_humidity;BME280_pressure;Samples;Min_cycle;Max_cycle;Signal;HPM_P1;HPM_P2
2022/12/02 00:00:20;;;;;;;33.28;17.63;;;5.30;88.40;;;;;;5007479;28;20037;-63
2022/12/02 00:02:46;;;;;;;31.40;16.58;;;5.30;88.60;;;;;;5006246;28;20129;-63
2022/12/02 00:05:15;;;;;;;30.58;16.10;;;5.30;88.60;;;;;;5016229;28;20117;-63
2022/12/02 00:07:44;;;;;;;29.60;16.20;;;5.30;88.60;;;;;;5016772;28;20401;-63
2022/12/02 00:10:22;;;;;;;31.80;16.40;;;5.30;88.70;;;;;;5015559;28;20383;-64
2022/12/02 00:12:48;;;;;;;28.13;15.68;;;5.30;88.70;;;;;;5013626;28;20547;-62
2022/12/02 00:15:40;;;;;;;32.08;16.45;;;5.30;88.50;;;;;;5015574;28;20034;-63
2022/12/02 00:18:14;;;;;;;28.17;15.75;;;5.30;88.70;;;;;;4996336;28;20042;-63
2022/12/02 00:20:40;;;;;;;27.95;15.70;;;5.20;88.50;;;;;;5012574;28;20490;-63
2022/12/02 00:23:06;;;;;;;29.50;16.02;;;5.20;88.70;;;;;;5014940;28;20041;-63
2022/12/02 00:25:32;;;;;;;29.60;15.10;;;5.20;88.70;;;;;;5008076;28;20417;-63
2022/12/02 00:27:58;;;;;;;29.38;15.65;;;5.20;88.70;;;;;;5013657;28;20034;-63
2022/12/02 00:30:24;;;;;;;27.52;15.25;;;5.20;88.80;;;;;;5013102;28;20036;-63
2022/12/02 00:32:50;;;;;;;27.08;14.23;;;5.20;88.90;;;;;;5012933;28;20037;-63
2022/12/02 00:35:16;;;;;;;29.02;15.18;;;5.20;88.90;;;;;;5012024;28;20048;-63
2022/12/02 00:37:42;;;;;;;26.17;14.13;;;5.20;88.90;;;;;;5014275;28;20038;-63
2022/12/02 00:40:08;;;;;;;27.42;15.05;;;5.20;88.80;;;;;;5013295;28;20423;-63
2022/12/02 00:42:33;;;;;;;26.77;14.60;;;5.20;88.70;;;;;;5011310;28;20560;-63
2022/12/02 00:47:43;;;;;;;27.70;14.55;;;5.20;88.90;;;;;;5013663;28;20061;-61
2022/12/02 00:50:10;;;;;;;27.02;14.23;;;5.20;88.90;;;;;;5014465;28;20493;-64
2022/12/02 00:52:35;;;;;;;24.73;13.30;;;5.20;88.90;;;;;;5014663;28;20033;-63
2022/12/02 00:55:01;;;;;;;31.48;15.45;;;5.10;88.70;;;;;;5016857;28;20432;-63
2022/12/02 00:57:26;;;;;;;24.67;13.77;;;5.10;88.70;;;;;;5015487;28;20501;-63
2022/12/02 00:59:52;;;;;;;25.45;13.52;;;5.10;88.70;;;;;;5015925;28;20098;-64
2022/12/02 01:02:17;;;;;;;25.52;13.48;;;5.10;88.70;;;;;;5015364;28;20425;-64
2022/12/02 01:04:43;;;;;;;24.73;13.73;;;5.10;88.70;;;;;;5014860;28;20085;-63
2022/12/02 01:07:09;;;;;;;23.80;13.60;;;5.10;88.70;;;;;;5015599;28;20520;-62
2022/12/02 01:09:35;;;;;;;25.80;14.10;;;5.20;88.90;;;;;;5014592;28;20034;-62
2022/12/02 01:12:00;;;;;;;24.80;13.90;;;5.20;88.70;;;;;;5008268;28;20046;-63
2022/12/02 01:14:26;;;;;;;24.55;13.68;;;5.20;88.60;;;;;;5012030;28;20029;-63
2022/12/02 01:16:52;;;;;;;23.67;13.27;;;5.20;88.50;;;;;;5013060;28;20045;-63
2022/12/02 01:19:17;;;;;;;21.50;12.95;;;5.20;88.40;;;;;;5014298;28;20037;-63
2022/12/02 01:21:43;;;;;;;23.48;12.90;;;5.20;88.40;;;;;;5014690;28;20073;-61
2022/12/02 01:24:09;;;;;;;25.00;13.73;;;5.20;88.40;;;;;;5013470;28;20457;-63
2022/12/02 01:26:34;;;;;;;24.40;12.85;;;5.20;88.40;;;;;;5007993;28;20413;-63
2022/12/02 01:29:00;;;;;;;21.27;12.55;;;5.20;88.40;;;;;;5015710;28;20041;-63
2022/12/02 01:31:25;;;;;;;24.92;12.95;;;5.10;88.10;;;;;;5011687;28;20038;-62
2022/12/02 01:33:51;;;;;;;23.67;12.88;;;5.10;87.90;;;;;;5011254;28;20038;-61
2022/12/02 01:36:16;;;;;;;22.38;12.80;;;5.10;87.90;;;;;;5013106;28;20552;-62
2022/12/02 01:38:42;;;;;;;23.95;13.07;;;5.10;88.10;;;;;;5011973;28;20053;-62
2022/12/02 01:41:08;;;;;;;24.02;12.98;;;5.00;88.10;;;;;;5009707;28;20034;-62
2022/12/02 01:43:34;;;;;;;23.30;13.07;;;5.00;88.30;;;;;;5013341;28;20353;-63
2022/12/02 01:46:00;;;;;;;25.35;13.50;;;5.00;88.60;;;;;;5010896;28;20041;-62
2022/12/02 01:48:27;;;;;;;24.58;13.55;;;5.00;88.60;;;;;;5012279;28;20413;-63
2022/12/02 01:50:52;;;;;;;25.95;13.63;;;5.00;88.70;;;;;;5011696;28;20049;-64
2022/12/02 01:53:18;;;;;;;26.75;13.18;;;5.00;88.70;;;;;;5010230;28;20040;-62
2022/12/02 01:55:44;;;;;;;23.50;13.18;;;5.10;88.60;;;;;;5011820;28;20088;-62
2022/12/02 01:58:12;;;;;;;25.52;14.00;;;5.10;88.60;;;;;;5013107;28;20068;-64
2022/12/02 02:00:38;;;;;;;24.35;13.48;;;5.10;88.70;;;;;;5009300;28;20056;-62
2022/12/02 02:03:04;;;;;;;24.67;13.88;;;5.10;88.80;;;;;;5010269;28;20037;-63
2022/12/02 02:05:32;;;;;;;27.42;15.00;;;5.10;88.90;;;;;;5009213;28;20587;-63
2022/12/02 02:08:06;;;;;;;26.27;13.85;;;5.20;88.70;;;;;;5012402;28;20080;-62
2022/12/02 02:10:32;;;;;;;28.13;14.90;;;5.20;89.40;;;;;;5009177;28;20470;-61
2022/12/02 02:12:59;;;;;;;25.02;14.13;;;5.20;88.60;;;;;;5009623;28;20034;-63
2022/12/02 02:15:24;;;;;;;24.67;14.30;;;5.20;88.70;;;;;;5008203;28;20141;-62
2022/12/02 02:17:51;;;;;;;28.02;15.50;;;5.30;89.30;;;;;;5009960;28;20044;-63
2022/12/02 02:20:22;;;;;;;27.60;14.88;;;5.30;88.70;;;;;;5010528;28;20037;-63
2022/12/02 02:23:05;;;;;;;28.25;15.65;;;5.30;88.60;;;;;;5012020;28;20439;-62
2022/12/02 02:25:42;;;;;;;26.80;14.45;;;5.40;88.60;;;;;;5010345;28;20429;-63
2022/12/02 02:28:08;;;;;;;25.27;14.00;;;5.40;89.30;;;;;;5013686;28;20034;-63
2022/12/02 02:30:35;;;;;;;28.67;15.13;;;5.40;88.40;;;;;;5012114;28;20053;-63
2022/12/02 02:33:02;;;;;;;26.38;14.75;;;5.40;88.30;;;;;;5012605;28;20046;-63
2022/12/02 02:35:28;;;;;;;26.08;14.80;;;5.40;88.30;;;;;;5009748;28;20034;-63
2022/12/02 02:37:54;;;;;;;25.50;14.00;;;5.40;88.20;;;;;;5013019;28;20038;-63
2022/12/02 02:40:22;;;;;;;26.02;14.82;;;5.50;88.20;;;;;;5012626;28;20041;-63
2022/12/02 02:42:51;;;;;;;27.30;14.77;;;5.50;88.20;;;;;;5009130;28;20371;-63
2022/12/02 02:45:19;;;;;;;28.80;14.68;;;5.50;88.10;;;;;;5011462;28;20172;-63
2022/12/02 02:47:45;;;;;;;25.80;14.40;;;5.50;88.20;;;;;;5010102;28;20033;-63
2022/12/02 02:50:10;;;;;;;26.48;14.07;;;5.50;88.10;;;;;;5008673;28;20049;-63
2022/12/02 02:52:36;;;;;;;26.63;14.80;;;5.50;87.90;;;;;;5013762;28;20030;-63
2022/12/02 02:55:03;;;;;;;23.17;13.55;;;5.50;87.90;;;;;;5013138;28;20125;-63
2022/12/02 02:57:30;;;;;;;24.38;13.70;;;5.50;88.40;;;;;;5013825;28;20500;-63
2022/12/02 02:59:56;;;;;;;24.98;13.65;;;5.40;88.10;;;;;;5014516;28;20511;-63
2022/12/02 03:02:24;;;;;;;23.98;13.73;;;5.40;88.20;;;;;;5014285;28;20417;-63
2022/12/02 03:04:49;;;;;;;24.80;13.90;;;5.40;88.30;;;;;;5008645;28;20038;-62
2022/12/02 03:07:15;;;;;;;22.27;12.45;;;5.50;88.40;;;;;;5011544;28;20045;-63
2022/12/02 03:09:41;;;;;;;26.10;13.73;;;5.40;88.40;;;;;;5012772;28;20043;-63
2022/12/02 03:12:08;;;;;;;24.75;13.57;;;5.50;88.40;;;;;;5007975;28;20026;-63
2022/12/02 03:14:34;;;;;;;23.40;13.55;;;5.50;88.40;;;;;;5011209;28;20115;-62
2022/12/02 03:17:01;;;;;;;23.55;13.18;;;5.50;88.40;;;;;;5010360;28;20509;-62
2022/12/02 03:19:29;;;;;;;22.83;12.68;;;5.50;88.40;;;;;;5008027;28;20030;-62
2022/12/02 03:21:55;;;;;;;23.67;13.55;;;5.50;88.30;;;;;;5012860;28;20022;-63
2022/12/02 03:24:21;;;;;;;21.42;12.57;;;5.50;88.20;;;;;;5010006;28;20088;-63
2022/12/02 03:26:47;;;;;;;24.63;13.63;;;5.50;88.20;;;;;;5010452;28;20041;-62
2022/12/02 03:29:14;;;;;;;21.90;12.48;;;5.60;88.20;;;;;;5010737;28;20041;-63
2022/12/02 03:31:40;;;;;;;24.05;13.52;;;5.60;88.20;;;;;;5011535;28;20049;-62
2022/12/02 03:34:07;;;;;;;23.10;12.90;;;5.60;88.10;;;;;;5010981;28;20461;-62
2022/12/02 03:36:33;;;;;;;23.48;13.25;;;5.60;88.00;;;;;;5011547;28;20029;-62
2022/12/02 03:38:59;;;;;;;23.52;13.48;;;5.60;88.00;;;;;;5012698;28;20412;-63
2022/12/02 03:41:25;;;;;;;23.88;13.38;;;5.60;88.00;;;;;;5008102;28;20048;-61
2022/12/02 03:43:52;;;;;;;27.35;14.30;;;5.60;88.10;;;;;;5011821;28;20029;-63
2022/12/02 03:46:17;;;;;;;25.50;14.20;;;5.60;88.10;;;;;;5007653;28;20128;-63
2022/12/02 03:48:44;;;;;;;24.38;14.40;;;5.60;88.00;;;;;;5009584;28;20132;-62
2022/12/02 03:51:11;;;;;;;23.85;14.07;;;5.60;87.90;;;;;;5013761;28;20050;-63
2022/12/02 03:53:37;;;;;;;25.40;14.40;;;5.60;87.90;;;;;;5011923;28;20037;-63
2022/12/02 03:56:05;;;;;;;24.90;14.35;;;5.60;87.90;;;;;;5012280;28;20584;-63
2022/12/02 03:58:47;;;;;;;27.05;13.93;;;5.60;87.90;;;;;;5009549;28;20046;-63
2022/12/02 04:01:13;;;;;;;24.25;13.45;;;5.60;87.90;;;;;;5007011;28;20641;-63
2022/12/02 04:03:39;;;;;;;23.08;13.48;;;5.60;87.90;;;;;;5004049;28;20128;-63
2022/12/02 04:06:05;;;;;;;23.70;13.98;;;5.60;87.90;;;;;;5011768;28;20144;-63
2022/12/02 04:08:30;;;;;;;27.88;14.13;;;5.70;87.90;;;;;;5010477;28;20156;-63
2022/12/02 04:10:56;;;;;;;22.30;12.95;;;5.70;87.90;;;;;;5010554;28;20454;-63
2022/12/02 04:13:21;;;;;;;22.63;13.02;;;5.70;87.80;;;;;;5011103;28;20117;-60
2022/12/02 04:15:47;;;;;;;23.17;12.32;;;5.70;87.60;;;;;;5010038;28;20090;-64
2022/12/02 04:18:13;;;;;;;23.75;12.55;;;5.60;87.70;;;;;;5008527;28;20056;-62
2022/12/02 04:20:38;;;;;;;20.08;11.52;;;5.60;87.50;;;;;;5010252;28;20038;-63
2022/12/02 04:23:04;;;;;;;19.42;11.25;;;5.60;87.50;;;;;;5010910;28;20091;-62
2022/12/02 04:25:30;;;;;;;21.00;11.98;;;5.60;87.70;;;;;;5010712;28;20040;-64
2022/12/02 04:27:55;;;;;;;21.50;12.52;;;5.60;87.80;;;;;;5008618;28;20370;-63
2022/12/02 04:30:21;;;;;;;24.73;12.80;;;5.60;87.80;;;;;;5009510;28;20033;-63
2022/12/02 04:32:46;;;;;;;23.30;11.63;;;5.60;87.70;;;;;;5009896;28;20518;-63
2022/12/02 04:35:12;;;;;;;20.55;12.00;;;5.60;87.70;;;;;;5006770;28;20065;-63
2022/12/02 04:37:37;;;;;;;23.45;12.20;;;5.60;88.50;;;;;;5012816;28;20033;-63
2022/12/02 04:40:04;;;;;;;21.00;12.05;;;5.60;87.50;;;;;;5012788;28;20092;-64
2022/12/02 04:42:30;;;;;;;21.42;12.05;;;5.60;87.50;;;;;;5010557;28;20050;-62
2022/12/02 04:44:55;;;;;;;24.83;13.18;;;5.60;87.60;;;;;;5009626;28;20505;-63
2022/12/02 04:47:21;;;;;;;24.33;13.27;;;5.60;87.60;;;;;;5008839;28;20121;-63
2022/12/02 04:49:46;;;;;;;22.55;13.15;;;5.60;87.40;;;;;;5010080;28;20089;-62
2022/12/02 04:52:12;;;;;;;24.35;12.48;;;5.60;87.50;;;;;;5014396;28;20030;-63
2022/12/02 04:54:38;;;;;;;20.27;12.32;;;5.50;87.10;;;;;;5014834;28;20120;-63
2022/12/02 04:57:03;;;;;;;22.65;12.73;;;5.50;87.10;;;;;;5016980;28;20030;-62
2022/12/02 04:59:29;;;;;;;23.02;12.23;;;5.50;87.20;;;;;;5014920;28;20060;-61
2022/12/02 05:01:54;;;;;;;21.42;12.18;;;5.40;87.20;;;;;;5015315;28;20129;-63
2022/12/02 05:04:20;;;;;;;22.98;12.15;;;5.40;87.30;;;;;;5015657;28;20092;-63
2022/12/02 05:06:45;;;;;;;22.10;12.55;;;5.40;87.40;;;;;;5016091;28;20037;-63
2022/12/02 05:09:11;;;;;;;21.30;12.25;;;5.30;87.50;;;;;;5011680;28;20129;-63
2022/12/02 05:11:37;;;;;;;25.23;13.20;;;5.30;87.70;;;;;;5006857;28;20100;-63
2022/12/02 05:14:02;;;;;;;24.02;12.82;;;5.30;87.60;;;;;;5014999;28;20037;-63
2022/12/02 05:16:28;;;;;;;23.40;13.70;;;5.20;87.60;;;;;;5011412;28;20105;-63
2022/12/02 05:18:53;;;;;;;26.50;13.90;;;5.20;87.60;;;;;;5014026;28;20048;-63
2022/12/02 05:21:19;;;;;;;23.83;12.90;;;5.20;87.60;;;;;;5013975;28;20579;-63
2022/12/02 05:23:44;;;;;;;22.73;13.13;;;5.20;87.70;;;;;;5014497;28;20034;-64
2022/12/02 05:26:11;;;;;;;27.55;14.80;;;5.20;88.00;;;;;;5012146;28;20033;-63
2022/12/02 05:28:36;;;;;;;28.10;15.32;;;5.10;88.10;;;;;;5012675;28;20444;-63
2022/12/02 05:31:02;;;;;;;27.00;14.85;;;5.20;88.20;;;;;;5012553;28;21313;-63
2022/12/02 05:33:27;;;;;;;27.98;15.68;;;5.20;89.10;;;;;;5012348;28;20053;-62
2022/12/02 05:35:53;;;;;;;27.80;15.70;;;5.20;88.20;;;;;;5013982;28;20053;-63
2022/12/02 05:38:18;;;;;;;32.72;18.15;;;5.20;88.30;;;;;;5014910;28;20032;-62
2022/12/02 05:40:44;;;;;;;30.88;17.85;;;5.20;88.40;;;;;;5011413;28;20778;-63
2022/12/02 05:43:21;;;;;;;28.58;16.10;;;5.20;88.60;;;;;;5011939;28;20030;-63
2022/12/02 05:45:47;;;;;;;30.00;16.23;;;5.20;88.60;;;;;;5011853;28;20077;-62
2022/12/02 05:48:15;;;;;;;26.23;14.52;;;5.30;88.60;;;;;;5007682;28;20455;-61
2022/12/02 05:50:42;;;;;;;25.13;14.27;;;5.30;88.50;;;;;;5011721;28;20275;-63
2022/12/02 05:53:24;;;;;;;28.35;14.45;;;5.30;88.50;;;;;;5013821;28;20044;-63
2022/12/02 05:55:56;;;;;;;27.92;14.98;;;5.30;88.60;;;;;;5010558;28;20045;-63
2022/12/02 05:58:22;;;;;;;27.80;14.07;;;5.40;88.60;;;;;;5012190;28;20080;-64
2022/12/02 06:00:54;;;;;;;28.75;15.38;;;5.40;88.40;;;;;;5009713;28;20117;-62
2022/12/02 06:03:21;;;;;;;28.80;15.05;;;5.40;88.40;;;;;;5012737;28;20034;-64
2022/12/02 06:05:48;;;;;;;24.88;14.68;;;5.40;88.40;;;;;;5011742;28;20072;-63
2022/12/02 06:08:18;;;;;;;27.90;15.35;;;5.40;88.40;;;;;;5011536;28;20104;-63
2022/12/02 06:10:51;;;;;;;27.05;15.05;;;5.50;88.40;;;;;;5009348;28;20041;-63
2022/12/02 06:13:19;;;;;;;28.40;15.27;;;5.50;88.30;;;;;;5012776;28;20084;-64
2022/12/02 06:15:46;;;;;;;30.10;16.13;;;5.50;88.20;;;;;;5012616;28;20036;-63
2022/12/02 06:18:17;;;;;;;26.40;14.45;;;5.50;88.20;;;;;;5012821;28;20034;-63
2022/12/02 06:20:45;;;;;;;26.30;14.88;;;5.50;88.20;;;;;;5012618;28;20037;-64
2022/12/02 06:23:14;;;;;;;27.08;15.15;;;5.50;88.10;;;;;;5015630;28;20030;-62
2022/12/02 06:25:40;;;;;;;29.10;14.85;;;5.60;88.10;;;;;;5014502;28;20061;-63
2022/12/02 06:28:24;;;;;;;28.50;15.45;;;5.60;88.00;;;;;;5012448;28;20045;-63
2022/12/02 06:30:51;;;;;;;26.30;15.18;;;5.60;88.00;;;;;;5010678;28;20048;-62
2022/12/02 06:33:31;;;;;;;29.13;14.80;;;5.60;87.80;;;;;;5012967;28;20040;-63
2022/12/02 06:36:01;;;;;;;29.33;15.68;;;5.60;87.80;;;;;;5011569;28;20098;-63
2022/12/02 06:38:30;;;;;;;27.60;15.38;;;5.60;87.80;;;;;;5010909;28;20642;-62
2022/12/02 06:40:59;;;;;;;29.55;15.02;;;5.60;87.90;;;;;;5012773;28;20030;-64
2022/12/02 06:43:29;;;;;;;28.48;15.20;;;5.60;87.90;;;;;;5015250;28;20072;-63
2022/12/02 06:45:55;;;;;;;27.48;14.95;;;5.60;88.00;;;;;;5014942;28;20037;-62
2022/12/02 06:48:33;;;;;;;25.65;15.52;;;5.60;88.10;;;;;;5011702;28;20033;-63
2022/12/02 06:51:25;;;;;;;23.73;13.80;;;5.60;88.10;;;;;;5012817;28;20045;-63
2022/12/02 06:53:51;;;;;;;22.98;13.50;;;5.60;87.90;;;;;;5011098;28;20091;-63
2022/12/02 06:56:16;;;;;;;22.67;13.27;;;5.60;87.80;;;;;;5009780;28;20505;-63
2022/12/02 06:59:02;;;;;;;22.85;13.48;;;5.60;87.80;;;;;;5010068;28;20045;-63
2022/12/02 07:01:30;;;;;;;20.35;12.30;;;5.60;87.70;;;;;;5011348;28;20605;-62
2022/12/02 07:04:15;;;;;;;22.92;13.25;;;5.60;87.70;;;;;;5009794;28;20069;-63
2022/12/02 07:06:43;;;;;;;25.02;13.75;;;5.50;87.70;;;;;;5010467;28;20429;-62
2022/12/02 07:09:17;;;;;;;24.52;13.45;;;5.50;87.70;;;;;;5012006;28;20033;-64
2022/12/02 07:11:50;;;;;;;20.87;12.33;;;5.50;87.90;;;;;;5009346;28;20034;-63
2022/12/02 07:14:18;;;;;;;22.80;13.35;;;5.40;87.90;;;;;;5010556;28;20129;-63
2022/12/02 07:16:44;;;;;;;24.02;13.68;;;5.40;87.90;;;;;;5011724;28;20113;-63
2022/12/02 07:19:17;;;;;;;23.35;13.52;;;5.40;88.00;;;;;;5009494;28;20042;-61
2022/12/02 07:21:43;;;;;;;24.63;13.27;;;5.40;88.20;;;;;;5011403;28;20045;-61
2022/12/02 07:24:17;;;;;;;24.45;13.20;;;5.40;88.40;;;;;;5008844;28;20576;-62
2022/12/02 07:26:45;;;;;;;28.15;13.98;;;5.40;88.60;;;;;;5008918;28;20033;-63
2022/12/02 07:29:24;;;;;;;26.45;14.52;;;5.40;88.60;;;;;;5011549;28;20058;-61
2022/12/02 07:31:50;;;;;;;27.13;14.50;;;5.40;88.40;;;;;;5009395;28;20037;-63
2022/12/02 07:34:15;;;;;;;28.38;14.35;;;5.40;88.40;;;;;;5007608;28;20053;-64
2022/12/02 07:36:41;;;;;;;25.15;14.32;;;5.40;88.40;;;;;;5011976;28;20150;-64
2022/12/02 07:39:06;;;;;;;26.75;14.90;;;5.40;88.40;;;;;;5011831;28;20088;-64
2022/12/02 07:41:33;;;;;;;26.27;13.98;;;5.50;88.60;;;;;;5010220;28;20041;-64
2022/12/02 07:43:59;;;;;;;25.33;13.85;;;5.50;88.60;;;;;;5010765;28;20033;-64
2022/12/02 07:46:24;;;;;;;23.05;13.07;;;5.50;88.50;;;;;;5006441;28;20464;-64
2022/12/02 07:48:50;;;;;;;22.98;12.93;;;5.50;88.50;;;;;;5007596;28;20029;-63
2022/12/02 07:51:15;;;;;;;23.73;13.68;;;5.50;88.40;;;;;;5011594;28;20068;-61
2022/12/02 07:53:41;;;;;;;24.42;13.43;;;5.60;88.40;;;;;;5012243;28;20516;-64
2022/12/02 07:56:07;;;;;;;20.95;12.48;;;5.60;89.10;;;;;;5009681;28;20121;-63
2022/12/02 07:58:32;;;;;;;21.88;12.38;;;5.60;88.20;;;;;;5010340;28;20091;-63
2022/12/02 08:00:58;;;;;;;19.52;11.70;;;5.60;88.00;;;;;;5011491;28;20452;-62
2022/12/02 08:03:24;;;;;;;20.55;11.98;;;5.70;88.00;;;;;;5009718;28;20053;-63
2022/12/02 08:05:49;;;;;;;20.08;11.77;;;5.70;88.00;;;;;;5009616;28;20129;-62
2022/12/02 08:08:15;;;;;;;24.02;13.18;;;5.70;88.00;;;;;;5010078;28;20125;-63
2022/12/02 08:10:41;;;;;;;24.23;13.88;;;5.70;88.00;;;;;;5011238;28;20026;-64
2022/12/02 08:13:09;;;;;;;27.33;15.40;;;5.70;88.00;;;;;;5010064;28;20096;-63
2022/12/02 08:15:34;;;;;;;25.77;14.15;;;5.70;87.90;;;;;;5010455;28;20100;-63
2022/12/02 08:18:00;;;;;;;27.25;15.40;;;5.70;87.80;;;;;;5011397;28;20493;-62
2022/12/02 08:20:27;;;;;;;27.13;14.55;;;5.70;87.80;;;;;;5008053;28;20038;-63
2022/12/02 08:22:53;;;;;;;27.65;14.73;;;5.70;87.90;;;;;;5009820;28;20389;-63
2022/12/02 08:25:18;;;;;;;30.70;14.60;;;5.70;87.90;;;;;;5011582;28;20048;-62
2022/12/02 08:27:44;;;;;;;30.65;15.07;;;5.70;87.80;;;;;;4998733;28;20104;-63
2022/12/02 08:30:11;;;;;;;33.13;16.17;;;5.80;87.90;;;;;;5017889;28;20041;-63
2022/12/02 08:32:37;;;;;;;28.75;14.80;;;5.80;87.80;;;;;;5015101;28;20716;-63
2022/12/02 08:35:07;;;;;;;29.38;14.68;;;5.80;87.80;;;;;;5013254;28;20144;-62
2022/12/02 08:37:32;;;;;;;27.90;14.55;;;5.80;87.80;;;;;;5016098;28;20497;-62
2022/12/02 08:39:58;;;;;;;26.98;14.35;;;5.80;87.70;;;;;;5015363;28;20029;-62
2022/12/02 08:42:23;;;;;;;27.50;14.27;;;5.80;87.70;;;;;;5012204;28;20100;-62
2022/12/02 08:44:49;;;;;;;25.80;13.85;;;5.80;87.70;;;;;;5001625;28;20591;-63
2022/12/02 08:47:14;;;;;;;24.00;13.60;;;5.80;87.70;;;;;;5012638;28;20032;-62
2022/12/02 08:49:40;;;;;;;25.52;14.38;;;5.80;87.80;;;;;;4999650;28;20038;-63
2022/12/02 08:52:05;;;;;;;29.90;15.32;;;5.80;87.80;;;;;;5012602;28;20038;-63
2022/12/02 08:54:31;;;;;;;30.67;15.20;;;5.80;87.80;;;;;;5015626;28;20480;-65
2022/12/02 08:56:59;;;;;;;32.00;15.60;;;5.80;87.70;;;;;;5012067;28;20041;-63
2022/12/02 08:59:25;;;;;;;24.77;13.82;;;5.80;87.90;;;;;;5012990;28;20030;-63
2022/12/02 09:01:51;;;;;;;28.73;14.88;;;5.80;88.00;;;;;;5009103;28;20254;-63
2022/12/02 09:04:16;;;;;;;27.88;15.18;;;5.80;88.00;;;;;;5010467;28;20030;-63
2022/12/02 09:06:42;;;;;;;32.15;15.85;;;5.80;88.10;;;;;;5015347;28;20028;-63
2022/12/02 09:09:07;;;;;;;30.40;16.13;;;5.80;88.10;;;;;;5015426;28;20039;-63
2022/12/02 09:11:33;;;;;;;29.13;15.38;;;5.80;88.10;;;;;;5010303;28;20168;-63
2022/12/02 09:13:59;;;;;;;28.35;14.90;;;5.80;88.00;;;;;;5011522;28;20042;-64
2022/12/02 09:16:24;;;;;;;27.30;14.68;;;5.80;87.90;;;;;;5014117;28;20029;-63
2022/12/02 09:18:50;;;;;;;25.55;13.77;;;5.80;87.90;;;;;;5012524;28;20034;-62
2022/12/02 09:21:16;;;;;;;24.60;13.65;;;5.80;87.90;;;;;;5015503;28;20042;-62
2022/12/02 09:23:42;;;;;;;24.85;13.75;;;5.80;87.80;;;;;;5009272;28;20404;-63
2022/12/02 09:26:07;;;;;;;22.02;12.27;;;5.80;87.90;;;;;;5012649;28;20506;-63
2022/12/02 09:28:33;;;;;;;24.85;14.07;;;5.80;87.90;;;;;;5014253;28;20456;-61
2022/12/02 09:30:58;;;;;;;24.48;13.60;;;5.80;87.80;;;;;;5013670;28;20053;-61
2022/12/02 09:33:24;;;;;;;21.60;12.63;;;5.80;87.70;;;;;;5011677;28;20033;-63
2022/12/02 09:35:50;;;;;;;21.60;12.75;;;5.90;87.80;;;;;;5016098;28;20124;-61
2022/12/02 09:38:16;;;;;;;22.58;13.48;;;5.80;87.80;;;;;;5010536;28;20496;-61
2022/12/02 09:40:41;;;;;;;22.77;12.65;;;5.80;87.90;;;;;;5010133;28;20070;-62
2022/12/02 09:43:07;;;;;;;23.58;13.38;;;5.80;87.90;;;;;;5015129;28;20153;-62
2022/12/02 09:45:33;;;;;;;23.65;13.93;;;5.80;87.80;;;;;;5016372;28;20042;-62
2022/12/02 09:47:59;;;;;;;25.75;14.70;;;5.80;87.90;;;;;;5011365;28;20030;-62
2022/12/02 09:50:25;;;;;;;24.35;13.85;;;5.80;87.90;;;;;;5017557;28;20058;-60
2022/12/02 09:52:53;;;;;;;22.95;13.75;;;5.80;88.00;;;;;;5016190;28;20406;-60
2022/12/02 09:55:19;;;;;;;23.83;13.07;;;5.80;88.00;;;;;;5012590;28;20029;-60
2022/12/02 09:57:45;;;;;;;22.95;12.93;;;5.80;88.20;;;;;;5010669;28;20067;-61
2022/12/02 10:00:18;;;;;;;24.00;13.30;;;5.70;88.20;;;;;;5010846;28;20523;-61
2022/12/02 10:02:51;;;;;;;24.55;12.82;;;5.70;88.30;;;;;;5014533;28;20037;-60
2022/12/02 10:05:28;;;;;;;22.83;12.93;;;5.70;88.30;;;;;;5015768;28;20046;-61
2022/12/02 10:07:57;;;;;;;23.85;12.85;;;5.70;88.20;;;;;;5015119;28;20052;-64
2022/12/02 10:10:28;;;;;;;26.42;13.65;;;5.70;88.10;;;;;;5010177;28;20041;-59
2022/12/02 10:12:54;;;;;;;25.30;13.93;;;5.70;88.10;;;;;;4997886;28;20121;-62
2022/12/02 10:15:26;;;;;;;27.88;15.63;;;5.70;88.20;;;;;;5014458;28;20481;-61
2022/12/02 10:17:53;;;;;;;27.75;15.63;;;5.70;88.20;;;;;;5013913;28;20513;-61
2022/12/02 10:20:24;;;;;;;26.20;14.48;;;5.70;88.20;;;;;;5010816;28;20413;-60
2022/12/02 10:23:07;;;;;;;22.98;13.27;;;5.70;88.20;;;;;;5014179;28;20033;-61
2022/12/02 10:25:34;;;;;;;25.25;13.55;;;5.70;88.80;;;;;;5003837;28;20505;-61
2022/12/02 10:28:00;;;;;;;24.20;13.23;;;5.80;88.40;;;;;;5010955;28;20073;-60
2022/12/02 10:30:27;;;;;;;23.85;13.05;;;5.80;88.40;;;;;;5011426;28;20045;-62
2022/12/02 10:33:03;;;;;;;24.20;13.15;;;5.80;88.50;;;;;;5006584;28;20048;-62
2022/12/02 10:35:46;;;;;;;23.58;13.05;;;5.80;88.50;;;;;;5008263;28;20397;-60
2022/12/02 10:38:33;;;;;;;23.48;13.35;;;5.90;88.50;;;;;;5016024;28;20038;-63
2022/12/02 10:41:14;;;;;;;23.40;13.20;;;5.90;88.60;;;;;;5016297;28;20390;-60
2022/12/02 10:43:51;;;;;;;24.30;13.05;;;6.00;88.60;;;;;;5008766;28;20044;-61
2022/12/02 10:46:19;;;;;;;25.77;13.70;;;6.00;88.40;;;;;;5017486;28;20036;-59
2022/12/02 10:48:45;;;;;;;26.20;14.32;;;6.00;88.30;;;;;;5016578;28;20056;-60
2022/12/02 10:51:19;;;;;;;23.50;13.20;;;6.10;88.20;;;;;;5016892;28;20513;-60
2022/12/02 10:53:48;;;;;;;22.83;12.70;;;6.10;87.90;;;;;;5016103;28;20060;-59
2022/12/02 10:56:17;;;;;;;22.08;12.88;;;6.10;87.70;;;;;;5018237;28;20552;-61
2022/12/02 10:58:43;;;;;;;22.52;12.93;;;6.20;87.70;;;;;;5006110;28;20038;-61
2022/12/02 11:01:11;;;;;;;21.55;11.85;;;6.10;87.50;;;;;;5014110;28;20509;-62
2022/12/02 11:03:37;;;;;;;20.23;12.40;;;6.20;87.40;;;;;;5015673;28;20037;-61
2022/12/02 11:06:19;;;;;;;22.80;12.27;;;6.20;87.30;;;;;;5017681;28;20113;-63
2022/12/02 11:08:47;;;;;;;21.55;11.98;;;6.20;87.30;;;;;;5016989;28;20052;-63
2022/12/02 11:11:33;;;;;;;22.20;12.15;;;6.20;87.30;;;;;;5017861;28;20512;-62
2022/12/02 11:13:59;;;;;;;22.45;12.07;;;6.30;87.20;;;;;;5003430;28;20030;-61
2022/12/02 11:16:28;;;;;;;19.35;11.30;;;6.30;87.20;;;;;;5001290;28;20045;-60
2022/12/02 11:19:02;;;;;;;20.42;12.02;;;6.30;86.80;;;;;;5017196;28;20040;-62
2022/12/02 11:21:28;;;;;;;23.42;12.05;;;6.30;86.70;;;;;;5017800;28;20033;-63
2022/12/02 11:24:21;;;;;;;17.83;10.65;;;6.30;86.90;;;;;;5017096;28;20046;-61
2022/12/02 11:26:59;;;;;;;17.75;10.52;;;6.30;87.50;;;;;;5016522;28;20061;-61
2022/12/02 11:29:42;;;;;;;20.38;11.02;;;6.30;86.50;;;;;;5017053;28;20029;-62
2022/12/02 11:32:20;;;;;;;25.02;11.90;;;6.30;86.60;;;;;;5017705;28;20045;-62
2022/12/02 11:34:55;;;;;;;21.35;11.88;;;6.20;86.60;;;;;;5016955;28;20386;-60
2022/12/02 11:37:27;;;;;;;20.67;11.52;;;6.20;86.60;;;;;;5017508;28;20041;-61
2022/12/02 11:39:54;;;;;;;20.15;11.30;;;6.20;87.40;;;;;;5018122;28;20049;-62
2022/12/02 11:42:26;;;;;;;20.65;10.93;;;6.20;86.70;;;;;;5013473;28;20489;-62
2022/12/02 11:44:53;;;;;;;21.17;11.13;;;6.20;86.80;;;;;;5012821;28;20061;-62
2022/12/02 11:47:29;;;;;;;20.52;11.40;;;6.20;86.90;;;;;;5010551;28;20804;-62
2022/12/02 11:50:17;;;;;;;20.90;11.18;;;6.10;86.70;;;;;;5011660;28;20069;-61
2022/12/02 11:53:00;;;;;;;21.20;11.60;;;6.20;86.80;;;;;;5012952;28;20038;-60
2022/12/02 11:55:38;;;;;;;20.52;10.60;;;6.20;86.80;;;;;;5014643;28;20033;-60
2022/12/02 11:58:31;;;;;;;22.15;11.48;;;6.20;87.60;;;;;;5015739;28;20095;-61
2022/12/02 12:01:05;;;;;;;20.60;11.68;;;6.20;86.60;;;;;;5012966;28;20065;-60
2022/12/02 12:03:32;;;;;;;21.40;10.30;;;6.20;86.60;;;;;;5014517;28;20108;-60
2022/12/02 12:06:18;;;;;;;19.38;10.32;;;6.20;86.70;;;;;;5012590;28;20030;-62
2022/12/02 12:08:53;;;;;;;18.13;9.75;;;6.20;86.60;;;;;;5014264;28;20039;-61
2022/12/02 12:11:19;;;;;;;;;;;6.20;86.70;;;;;;5015243;28;20038;-62
2022/12/02 12:14:02;;;;;;;19.98;10.40;;;6.20;86.60;;;;;;5015458;28;19924;-61
2022/12/02 12:16:32;;;;;;;21.67;12.60;;;6.20;86.50;;;;;;5012329;28;20121;-62
2022/12/02 12:19:16;;;;;;;18.98;11.23;;;6.10;86.60;;;;;;5007948;28;20069;-62
2022/12/02 12:21:47;;;;;;;17.30;10.25;;;6.10;86.50;;;;;;5011918;28;20236;-61
2022/12/02 12:24:22;;;;;;;19.85;10.18;;;6.10;86.50;;;;;;5013106;28;20457;-62
2022/12/02 12:26:54;;;;;;;18.55;10.68;;;6.10;86.50;;;;;;5008343;28;20736;-61
2022/12/02 12:29:22;;;;;;;17.50;9.80;;;6.10;86.60;;;;;;5011387;28;20652;-61
2022/12/02 12:31:48;;;;;;;22.08;11.00;;;6.10;86.60;;;;;;5010228;28;20036;-62
2022/12/02 12:34:17;;;;;;;19.60;11.40;;;6.10;86.70;;;;;;5012142;28;20050;-62
2022/12/02 12:36:44;;;;;;;20.23;11.10;;;6.10;86.90;;;;;;5010466;28;20030;-62
2022/12/02 12:39:09;;;;;;;15.93;10.43;;;6.10;87.80;;;;;;5012514;28;20466;-61
2022/12/02 12:41:38;;;;;;;19.55;11.35;;;6.20;86.90;;;;;;5011025;28;20048;-60
2022/12/02 12:44:04;;;;;;;15.85;9.93;;;6.20;86.80;;;;;;5009065;28;20236;-60
2022/12/02 12:46:30;;;;;;;21.13;11.40;;;6.20;86.50;;;;;;5009018;28;20175;-61